Centralia, IL

5:57 AM CST on February 22, 2017 (GMT -0600)
Centralia Municipal

Weather History for KENL - February, 2013

Change the Weather History Date:

Friday, February 15, 2013

  Actual Average (KSLO) Record (KSLO)
Temperature  
Mean Temperature 33 °F -  
Max Temperature 39 °F 43 °F 73 °F (1976)
Min Temperature 27 °F 26 °F -6 °F (1986)
Degree Days  
Heating Degree Days 32    
Moisture  
Dew Point 25 °F    
Average Humidity 69    
Maximum Humidity 88    
Minimum Humidity 45    
Precipitation  
Precipitation 0.00 in - - ()
Sea Level Pressure  
Sea Level Pressure 30.18 in    
Wind  
Wind Speed 6 mph (NW)    
Max Wind Speed 17 mph    
Max Gust Speed 24 mph    
Visibility 10 miles    
Events      
Averages and records for this station are not official NWS values.
T = Trace of Precipitation, MM = Missing Value Source: NWS Daily Summary

Daily Weather History Graph

Daily Weather History Graph

Search for Another Location

Airport or City:

Trip Planner

Search our weather history database for the weather conditions in past years. The results will help you decide how hot, cold, wet, or windy it might be!

Date:

Astronomy

Feb. 15, 2013 Rise Set
Actual Time 6:46 AM CST 5:34 PM CST
Civil Twilight 6:19 AM CST 6:01 PM CST
Nautical Twilight 5:48 AM CST 6:32 PM CST
Astronomical Twilight 5:17 AM CST 7:03 PM CST
Moon 9:27 AM CST (2/15) 11:30 PM CST (2/15)
Length of Visible Light 11h 42m
Length of Day
10h 48m
Waxing Crescent, 30% of the Moon is Illuminated
Feb 15
Waxing Crescent
Feb 17
First Quarter
Feb 25
Full
Mar 4
Last Quarter
Mar 11
New

Hourly Weather History & Observations

Time (CST) Temp. Windchill Dew Point Humidity Pressure Visibility Wind Dir Wind Speed Gust Speed Precip Events Conditions
12:15 AM 37.9 °F - 33.6 °F 84% 30.05 in 10.0 mi Calm Calm - N/A   Overcast
12:35 AM 39.2 °F - 33.8 °F 81% 30.05 in 10.0 mi Calm Calm - N/A   Mostly Cloudy
12:55 AM 36.0 °F 33.3 °F 32.4 °F 87% 30.05 in 10.0 mi NNW 3.5 mph - N/A   Mostly Cloudy
1:15 AM 35.8 °F - 32.2 °F 87% 30.05 in 10.0 mi Calm Calm - N/A   Overcast
1:35 AM 36.1 °F - 32.7 °F 87% 30.05 in 10.0 mi Calm Calm - N/A   Overcast
1:55 AM 36.7 °F - 33.4 °F 88% 30.06 in 10.0 mi Calm Calm - N/A   Unknown
2:15 AM 37.4 °F - 34.2 °F 88% 30.06 in 10.0 mi Calm Calm - N/A   Overcast
2:35 AM 37.6 °F 34.0 °F 34.2 °F 87% 30.07 in 10.0 mi WSW 4.6 mph - N/A   Overcast
2:55 AM 37.9 °F 34.4 °F 34.0 °F 86% 30.07 in 10.0 mi West 4.6 mph - N/A   Overcast
3:15 AM 37.8 °F 31.8 °F 34.0 °F 86% 30.07 in 10.0 mi West 8.1 mph - N/A   Overcast
3:35 AM 39.0 °F 32.8 °F 32.7 °F 78% 30.08 in 10.0 mi WNW 9.2 mph - N/A   Overcast
3:55 AM 38.8 °F 31.6 °F 32.0 °F 76% 30.08 in 10.0 mi NW 11.5 mph 16.1 mph N/A   Overcast
4:15 AM 38.7 °F 31.4 °F 31.1 °F 74% 30.09 in 10.0 mi NW 11.5 mph - N/A   Overcast
4:35 AM 37.9 °F 30.5 °F 30.7 °F 75% 30.10 in 10.0 mi NNW 11.5 mph 17.3 mph N/A   Mostly Cloudy
4:55 AM 37.2 °F 30.6 °F 30.2 °F 76% 30.10 in 10.0 mi NW 9.2 mph - N/A   Scattered Clouds
5:15 AM 36.9 °F 30.7 °F 30.6 °F 78% 30.11 in 10.0 mi NW 8.1 mph - N/A   Clear
5:35 AM 36.5 °F 30.3 °F 30.2 °F 78% 30.12 in 10.0 mi NW 8.1 mph - N/A   Scattered Clouds
5:55 AM 35.6 °F 28.6 °F 30.2 °F 81% 30.13 in 10.0 mi NW 9.2 mph - N/A   Scattered Clouds
6:15 AM 34.9 °F 27.1 °F 29.7 °F 81% 30.14 in 10.0 mi NW 10.4 mph - N/A   Scattered Clouds
6:35 AM 34.0 °F 24.6 °F 29.1 °F 82% 30.14 in 10.0 mi NW 13.8 mph 17.3 mph N/A   Clear
6:55 AM 33.4 °F 24.3 °F 28.2 °F 81% 30.15 in 10.0 mi NW 12.7 mph - N/A   Scattered Clouds
7:15 AM 33.8 °F 25.8 °F 28.2 °F 80% 30.16 in 10.0 mi NNW 10.4 mph - N/A   Mostly Cloudy
7:35 AM 33.8 °F 25.8 °F 28.4 °F 81% 30.17 in 10.0 mi NW 10.4 mph - N/A   Overcast
7:55 AM 33.8 °F 25.8 °F 27.7 °F 78% 30.18 in 10.0 mi NW 10.4 mph - N/A   Overcast
8:15 AM 33.8 °F 25.3 °F 27.5 °F 78% 30.20 in 10.0 mi NNW 11.5 mph 18.4 mph N/A   Overcast
8:35 AM 32.9 °F 24.1 °F 26.1 °F 76% 30.21 in 10.0 mi NW 11.5 mph 23.0 mph N/A   Overcast
8:55 AM 32.9 °F 23.7 °F 25.0 °F 73% 30.22 in 10.0 mi WNW 12.7 mph 18.4 mph N/A   Overcast
9:15 AM 33.4 °F 24.3 °F 24.8 °F 71% 30.22 in 10.0 mi NW 12.7 mph 17.3 mph N/A   Overcast
9:35 AM 34.3 °F 25.5 °F 25.5 °F 70% 30.22 in 10.0 mi WNW 12.7 mph 16.1 mph N/A   Mostly Cloudy
9:55 AM 34.5 °F 24.8 °F 25.2 °F 69% 30.22 in 10.0 mi WNW 15.0 mph 20.7 mph N/A   Overcast
10:15 AM 34.2 °F 24.8 °F 26.4 °F 73% 30.23 in 10.0 mi NW 13.8 mph - N/A   Overcast
10:35 AM 34.2 °F 24.4 °F 25.0 °F 69% 30.23 in 10.0 mi WNW 15.0 mph 19.6 mph N/A   Overcast
10:55 AM 34.0 °F 25.0 °F 24.3 °F 68% 30.24 in 10.0 mi WNW 12.7 mph 19.6 mph N/A   Mostly Cloudy
11:15 AM 34.2 °F 26.8 °F 21.9 °F 61% 30.24 in 10.0 mi NW 9.2 mph - N/A   Scattered Clouds
11:55 AM 35.1 °F 25.5 °F 21.0 °F 57% 30.23 in 10.0 mi NW 15.0 mph - N/A   Unknown
12:15 PM 35.4 °F 25.6 °F 19.9 °F 53% 30.22 in 10.0 mi NW 16.1 mph 23.0 mph N/A   Unknown
12:35 PM 35.6 °F 26.2 °F 19.4 °F 52% 30.22 in 10.0 mi NW 15.0 mph 24.2 mph N/A   Unknown
12:55 PM 36.0 °F 26.0 °F 20.1 °F 53% 30.21 in 10.0 mi NNW 17.3 mph 21.9 mph N/A   Clear
1:15 PM 36.1 °F 26.2 °F 19.9 °F 52% 30.21 in 10.0 mi NW 17.3 mph 21.9 mph N/A   Clear
1:35 PM 36.3 °F 28.0 °F 19.9 °F 52% 30.21 in 10.0 mi WNW 12.7 mph 18.4 mph N/A   Clear
1:55 PM 36.9 °F 29.1 °F 19.6 °F 50% 30.21 in 10.0 mi NNW 11.5 mph 18.4 mph N/A   Clear
2:15 PM 36.9 °F 28.7 °F 19.0 °F 49% 30.21 in 10.0 mi NW 12.7 mph 20.7 mph N/A   Clear
2:35 PM 37.4 °F 30.8 °F 19.4 °F 48% 30.22 in 10.0 mi WNW 9.2 mph 17.3 mph N/A   Clear
2:55 PM 37.6 °F 30.5 °F 18.9 °F 47% 30.22 in 10.0 mi NW 10.4 mph - N/A   Clear
3:15 PM 37.4 °F 31.4 °F 18.7 °F 47% 30.22 in 10.0 mi NW 8.1 mph - N/A   Clear
3:35 PM 37.8 °F 29.0 °F 19.2 °F 47% 30.22 in 10.0 mi NW 15.0 mph - N/A   Clear
3:55 PM 37.6 °F 30.5 °F 18.5 °F 46% 30.22 in 10.0 mi NNW 10.4 mph - N/A   Clear
4:15 PM 37.6 °F 32.3 °F 17.8 °F 45% 30.22 in 10.0 mi NW 6.9 mph - N/A   Clear
4:35 PM 36.9 °F 30.1 °F 17.1 °F 45% 30.23 in 10.0 mi NW 9.2 mph - N/A   Clear
4:55 PM 36.7 °F 30.5 °F 18.0 °F 47% 30.23 in 10.0 mi NW 8.1 mph - N/A   Clear
5:15 PM 35.8 °F 29.4 °F 18.1 °F 49% 30.23 in 10.0 mi NW 8.1 mph - N/A   Clear
5:35 PM 35.1 °F 29.3 °F 17.4 °F 49% 30.23 in 10.0 mi NW 6.9 mph - N/A   Clear
5:55 PM 33.8 °F 28.6 °F 18.5 °F 54% 30.23 in 10.0 mi NW 5.8 mph - N/A   Clear
6:15 PM 33.3 °F 27.9 °F 19.0 °F 56% 30.23 in 10.0 mi NW 5.8 mph - N/A   Clear
6:35 PM 32.4 °F 26.9 °F 18.9 °F 58% 30.23 in 10.0 mi NW 5.8 mph - N/A   Clear
6:55 PM 32.0 °F 27.5 °F 18.7 °F 58% 30.23 in 10.0 mi NW 4.6 mph - N/A   Clear
7:15 PM 32.0 °F 28.7 °F 18.7 °F 58% 30.23 in 10.0 mi NNW 3.5 mph - N/A   Clear
7:35 PM 31.8 °F 28.5 °F 20.3 °F 62% 30.23 in 10.0 mi NNW 3.5 mph - N/A   Clear
7:55 PM 32.0 °F - 18.3 °F 57% 30.23 in 10.0 mi Calm Calm - N/A   Clear
8:15 PM 31.5 °F 28.1 °F 20.1 °F 63% 30.23 in 10.0 mi NW 3.5 mph - N/A   Clear
8:35 PM 30.2 °F - 20.8 °F 68% 30.23 in 10.0 mi Calm Calm - N/A   Clear
8:55 PM 30.2 °F - 24.6 °F 80% 30.23 in 10.0 mi Calm Calm - N/A   Clear
9:15 PM 29.7 °F - 25.9 °F 86% 30.23 in 10.0 mi Calm Calm - N/A   Clear
9:35 PM 29.3 °F - 23.7 °F 80% 30.22 in 10.0 mi Calm Calm - N/A   Clear
9:55 PM 29.3 °F - 23.7 °F 80% 30.22 in 10.0 mi Calm Calm - N/A   Clear
10:15 PM 28.8 °F - 23.4 °F 80% 30.21 in 10.0 mi Calm Calm - N/A   Clear
10:35 PM 28.4 °F - 23.7 °F 83% 30.21 in 10.0 mi Calm Calm - N/A   Clear
10:55 PM 28.4 °F - 23.7 °F 83% 30.20 in 10.0 mi Calm Calm - N/A   Clear
11:15 PM 28.4 °F - 23.9 °F 83% 30.20 in 10.0 mi Calm Calm - N/A   Clear
11:35 PM 27.9 °F 24.0 °F 23.7 °F 84% 30.20 in 10.0 mi West 3.5 mph - N/A   Scattered Clouds
11:55 PM 30.0 °F 22.4 °F 22.3 °F 73% 30.20 in 10.0 mi NW 8.1 mph - N/A   Mostly Cloudy